Aviation WX

[Source: ADDS]
METAR
KFKL 171319Z AUTO 31005KT 8SM FEW008 BKN020 OVC049 23/21 A2995 RMK AO2 =
TAF
KFKL 171135Z 1712/1812 VRB04KT 3SM BR VCSH BKN004 FM171500 33007KT P6SM BKN015 FM171800 34010G18KT P6SM SKC FM172300 VRB05KT P6SM SKC =

Clarion Airport T-Shirts

small